sensor_id;sensor_type;location;lat;lon;timestamp;temperature;humidity
72106;SHT30;59975;47.646;18.318;2022-07-06T00:00:41;17.00;87.51
72106;SHT30;59975;47.646;18.318;2022-07-06T00:03:08;16.96;87.67
72106;SHT30;59975;47.646;18.318;2022-07-06T00:12:17;16.87;88.34
72106;SHT30;59975;47.646;18.318;2022-07-06T00:14:43;16.81;88.60
72106;SHT30;59975;47.646;18.318;2022-07-06T00:17:09;16.81;88.67
72106;SHT30;59975;47.646;18.318;2022-07-06T00:19:35;16.81;88.83
72106;SHT30;59975;47.646;18.318;2022-07-06T00:22:00;16.77;88.99
72106;SHT30;59975;47.646;18.318;2022-07-06T00:24:26;16.78;89.04
72106;SHT30;59975;47.646;18.318;2022-07-06T00:26:52;16.77;89.18
72106;SHT30;59975;47.646;18.318;2022-07-06T00:29:18;16.70;89.41
72106;SHT30;59975;47.646;18.318;2022-07-06T00:31:43;16.71;89.38
72106;SHT30;59975;47.646;18.318;2022-07-06T00:34:09;16.65;89.57
72106;SHT30;59975;47.646;18.318;2022-07-06T00:36:35;16.64;89.48
72106;SHT30;59975;47.646;18.318;2022-07-06T00:39:00;16.65;89.57
72106;SHT30;59975;47.646;18.318;2022-07-06T00:41:26;16.67;89.37
72106;SHT30;59975;47.646;18.318;2022-07-06T00:43:56;16.74;89.10
72106;SHT30;59975;47.646;18.318;2022-07-06T00:46:28;16.71;88.96
72106;SHT30;59975;47.646;18.318;2022-07-06T00:48:54;16.74;88.88
72106;SHT30;59975;47.646;18.318;2022-07-06T00:51:22;16.70;88.97
72106;SHT30;59975;47.646;18.318;2022-07-06T00:53:49;16.70;88.94
72106;SHT30;59975;47.646;18.318;2022-07-06T00:56:15;16.67;89.17
72106;SHT30;59975;47.646;18.318;2022-07-06T00:58:40;16.65;89.39
72106;SHT30;59975;47.646;18.318;2022-07-06T01:01:07;16.60;89.59
72106;SHT30;59975;47.646;18.318;2022-07-06T01:03:33;16.57;89.79
72106;SHT30;59975;47.646;18.318;2022-07-06T01:09:21;16.53;89.59
72106;SHT30;59975;47.646;18.318;2022-07-06T01:11:47;16.51;89.42
72106;SHT30;59975;47.646;18.318;2022-07-06T01:14:14;16.53;89.22
72106;SHT30;59975;47.646;18.318;2022-07-06T01:16:40;16.53;89.25
72106;SHT30;59975;47.646;18.318;2022-07-06T01:19:05;16.53;89.08
72106;SHT30;59975;47.646;18.318;2022-07-06T01:21:31;16.56;89.20
72106;SHT30;59975;47.646;18.318;2022-07-06T01:23:57;16.51;89.15
72106;SHT30;59975;47.646;18.318;2022-07-06T01:26:22;16.49;89.26
72106;SHT30;59975;47.646;18.318;2022-07-06T01:28:50;16.46;89.33
72106;SHT30;59975;47.646;18.318;2022-07-06T01:34:40;16.46;89.01
72106;SHT30;59975;47.646;18.318;2022-07-06T01:37:06;16.41;88.80
72106;SHT30;59975;47.646;18.318;2022-07-06T01:39:32;16.46;88.37
72106;SHT30;59975;47.646;18.318;2022-07-06T01:41:58;16.44;87.89
72106;SHT30;59975;47.646;18.318;2022-07-06T01:44:23;16.49;87.40
72106;SHT30;59975;47.646;18.318;2022-07-06T01:46:49;16.50;87.28
72106;SHT30;59975;47.646;18.318;2022-07-06T01:49:16;16.46;87.36
72106;SHT30;59975;47.646;18.318;2022-07-06T01:51:42;16.44;87.21
72106;SHT30;59975;47.646;18.318;2022-07-06T01:54:08;16.44;86.89
72106;SHT30;59975;47.646;18.318;2022-07-06T01:59:56;16.50;86.36
72106;SHT30;59975;47.646;18.318;2022-07-06T02:02:22;16.47;86.56
72106;SHT30;59975;47.646;18.318;2022-07-06T02:04:48;16.53;86.02
72106;SHT30;59975;47.646;18.318;2022-07-06T02:07:15;16.49;86.19
72106;SHT30;59975;47.646;18.318;2022-07-06T02:09:41;16.51;86.32
72106;SHT30;59975;47.646;18.318;2022-07-06T02:15:29;16.49;86.35
72106;SHT30;59975;47.646;18.318;2022-07-06T02:17:55;16.44;86.23
72106;SHT30;59975;47.646;18.318;2022-07-06T02:20:21;16.43;86.49
72106;SHT30;59975;47.646;18.318;2022-07-06T02:22:47;16.36;86.80
72106;SHT30;59975;47.646;18.318;2022-07-06T02:25:13;16.37;86.71
72106;SHT30;59975;47.646;18.318;2022-07-06T02:27:38;16.26;87.08
72106;SHT30;59975;47.646;18.318;2022-07-06T02:30:05;16.26;87.00
72106;SHT30;59975;47.646;18.318;2022-07-06T02:32:31;16.27;86.72
72106;SHT30;59975;47.646;18.318;2022-07-06T02:34:57;16.23;87.16
72106;SHT30;59975;47.646;18.318;2022-07-06T02:37:24;16.20;87.14
72106;SHT30;59975;47.646;18.318;2022-07-06T02:39:50;16.17;87.26
72106;SHT30;59975;47.646;18.318;2022-07-06T02:42:16;16.14;87.31
72106;SHT30;59975;47.646;18.318;2022-07-06T02:44:42;16.12;87.33
72106;SHT30;59975;47.646;18.318;2022-07-06T02:47:08;16.06;87.47
72106;SHT30;59975;47.646;18.318;2022-07-06T02:49:34;16.05;87.52
72106;SHT30;59975;47.646;18.318;2022-07-06T02:52:01;15.98;87.78
72106;SHT30;59975;47.646;18.318;2022-07-06T02:54:28;16.03;87.92
72106;SHT30;59975;47.646;18.318;2022-07-06T02:56:54;15.96;87.93
72106;SHT30;59975;47.646;18.318;2022-07-06T02:59:20;15.95;88.03
72106;SHT30;59975;47.646;18.318;2022-07-06T03:01:45;15.96;88.17
72106;SHT30;59975;47.646;18.318;2022-07-06T03:07:33;15.95;88.22
72106;SHT30;59975;47.646;18.318;2022-07-06T03:09:59;15.92;88.30
72106;SHT30;59975;47.646;18.318;2022-07-06T03:12:25;15.95;88.13
72106;SHT30;59975;47.646;18.318;2022-07-06T03:14:52;15.95;88.05
72106;SHT30;59975;47.646;18.318;2022-07-06T03:17:19;15.99;87.85
72106;SHT30;59975;47.646;18.318;2022-07-06T03:19:47;15.99;87.87
72106;SHT30;59975;47.646;18.318;2022-07-06T03:22:12;16.00;87.86
72106;SHT30;59975;47.646;18.318;2022-07-06T03:24:38;16.08;87.56
72106;SHT30;59975;47.646;18.318;2022-07-06T03:27:05;16.10;87.25
72106;SHT30;59975;47.646;18.318;2022-07-06T03:29:31;16.26;86.78
72106;SHT30;59975;47.646;18.318;2022-07-06T03:31:58;16.67;85.53
72106;SHT30;59975;47.646;18.318;2022-07-06T03:34:24;16.98;83.91
72106;SHT30;59975;47.646;18.318;2022-07-06T03:36:50;17.31;82.63
72106;SHT30;59975;47.646;18.318;2022-07-06T03:39:17;17.59;81.23
72106;SHT30;59975;47.646;18.318;2022-07-06T03:41:43;17.79;80.77
72106;SHT30;59975;47.646;18.318;2022-07-06T03:44:08;17.79;80.36
72106;SHT30;59975;47.646;18.318;2022-07-06T03:49:56;18.23;78.79
72106;SHT30;59975;47.646;18.318;2022-07-06T03:55:44;18.68;77.02
72106;SHT30;59975;47.646;18.318;2022-07-06T03:58:30;18.96;76.28
72106;SHT30;59975;47.646;18.318;2022-07-06T04:04:18;19.26;74.59
72106;SHT30;59975;47.646;18.318;2022-07-06T04:06:45;19.20;74.85
72106;SHT30;59975;47.646;18.318;2022-07-06T04:09:11;19.26;74.58
72106;SHT30;59975;47.646;18.318;2022-07-06T04:11:37;19.25;74.49
72106;SHT30;59975;47.646;18.318;2022-07-06T04:14:03;19.30;74.47
72106;SHT30;59975;47.646;18.318;2022-07-06T04:16:29;19.46;73.35
72106;SHT30;59975;47.646;18.318;2022-07-06T04:22:16;19.37;73.54
72106;SHT30;59975;47.646;18.318;2022-07-06T04:24:42;18.55;76.68
72106;SHT30;59975;47.646;18.318;2022-07-06T04:27:08;18.18;77.81
72106;SHT30;59975;47.646;18.318;2022-07-06T04:32:55;17.58;80.71
72106;SHT30;59975;47.646;18.318;2022-07-06T04:35:21;17.49;80.95
72106;SHT30;59975;47.646;18.318;2022-07-06T04:37:47;17.45;81.53
72106;SHT30;59975;47.646;18.318;2022-07-06T04:40:14;17.46;81.71
72106;SHT30;59975;47.646;18.318;2022-07-06T04:46:02;17.52;81.02
72106;SHT30;59975;47.646;18.318;2022-07-06T04:48:27;17.55;81.17
72106;SHT30;59975;47.646;18.318;2022-07-06T04:50:53;17.61;81.22
72106;SHT30;59975;47.646;18.318;2022-07-06T04:53:19;17.69;80.73
72106;SHT30;59975;47.646;18.318;2022-07-06T04:55:45;17.77;80.67
72106;SHT30;59975;47.646;18.318;2022-07-06T05:04:55;18.07;79.69
72106;SHT30;59975;47.646;18.318;2022-07-06T05:07:21;18.13;79.22
72106;SHT30;59975;47.646;18.318;2022-07-06T05:09:46;18.20;79.40
72106;SHT30;59975;47.646;18.318;2022-07-06T05:18:56;18.36;78.71
72106;SHT30;59975;47.646;18.318;2022-07-06T05:21:22;18.45;78.53
72106;SHT30;59975;47.646;18.318;2022-07-06T05:27:09;18.55;78.22
72106;SHT30;59975;47.646;18.318;2022-07-06T05:29:36;18.61;77.36
72106;SHT30;59975;47.646;18.318;2022-07-06T05:32:01;18.64;77.62
72106;SHT30;59975;47.646;18.318;2022-07-06T05:34:28;18.72;77.54
72106;SHT30;59975;47.646;18.318;2022-07-06T05:36:54;18.82;77.64
72106;SHT30;59975;47.646;18.318;2022-07-06T05:39:20;18.88;77.44
72106;SHT30;59975;47.646;18.318;2022-07-06T05:45:11;19.08;75.97
72106;SHT30;59975;47.646;18.318;2022-07-06T05:47:37;19.16;76.60
72106;SHT30;59975;47.646;18.318;2022-07-06T05:50:24;19.35;76.42
72106;SHT30;59975;47.646;18.318;2022-07-06T05:53:10;19.39;75.32
72106;SHT30;59975;47.646;18.318;2022-07-06T05:55:37;19.50;75.46
72106;SHT30;59975;47.646;18.318;2022-07-06T05:58:02;19.47;74.77
72106;SHT30;59975;47.646;18.318;2022-07-06T06:00:28;19.52;74.78
72106;SHT30;59975;47.646;18.318;2022-07-06T06:06:16;19.65;73.73
72106;SHT30;59975;47.646;18.318;2022-07-06T06:11:49;19.84;72.90
72106;SHT30;59975;47.646;18.318;2022-07-06T06:14:15;19.90;73.16
72106;SHT30;59975;47.646;18.318;2022-07-06T06:16:41;20.07;72.38
72106;SHT30;59975;47.646;18.318;2022-07-06T06:19:07;20.07;72.31
72106;SHT30;59975;47.646;18.318;2022-07-06T06:21:32;20.13;72.12
72106;SHT30;59975;47.646;18.318;2022-07-06T06:23:58;20.22;71.39
72106;SHT30;59975;47.646;18.318;2022-07-06T06:26:25;20.38;71.59
72106;SHT30;59975;47.646;18.318;2022-07-06T06:28:50;20.42;70.71
72106;SHT30;59975;47.646;18.318;2022-07-06T06:31:16;20.53;71.09
72106;SHT30;59975;47.646;18.318;2022-07-06T06:33:42;20.59;70.84
72106;SHT30;59975;47.646;18.318;2022-07-06T06:36:08;20.68;70.47
72106;SHT30;59975;47.646;18.318;2022-07-06T06:38:36;20.79;70.57
72106;SHT30;59975;47.646;18.318;2022-07-06T06:44:23;20.89;69.98
72106;SHT30;59975;47.646;18.318;2022-07-06T06:46:50;20.88;68.34
72106;SHT30;59975;47.646;18.318;2022-07-06T06:56:00;21.03;67.52
72106;SHT30;59975;47.646;18.318;2022-07-06T06:58:28;21.13;67.95
72106;SHT30;59975;47.646;18.318;2022-07-06T07:00:55;21.18;67.48
72106;SHT30;59975;47.646;18.318;2022-07-06T07:06:43;21.34;66.77
72106;SHT30;59975;47.646;18.318;2022-07-06T07:09:10;21.51;66.45
72106;SHT30;59975;47.646;18.318;2022-07-06T07:14:59;21.70;65.66
72106;SHT30;59975;47.646;18.318;2022-07-06T07:17:24;21.70;65.11
72106;SHT30;59975;47.646;18.318;2022-07-06T07:19:50;21.83;65.93
72106;SHT30;59975;47.646;18.318;2022-07-06T07:25:40;22.00;65.27
72106;SHT30;59975;47.646;18.318;2022-07-06T07:28:05;22.09;64.63
72106;SHT30;59975;47.646;18.318;2022-07-06T07:33:53;22.28;64.06
72106;SHT30;59975;47.646;18.318;2022-07-06T07:36:22;22.31;63.34
72106;SHT30;59975;47.646;18.318;2022-07-06T07:38:48;22.48;63.14
72106;SHT30;59975;47.646;18.318;2022-07-06T07:41:13;22.48;62.57
72106;SHT30;59975;47.646;18.318;2022-07-06T07:43:39;22.65;62.17
72106;SHT30;59975;47.646;18.318;2022-07-06T07:46:05;22.83;61.49
72106;SHT30;59975;47.646;18.318;2022-07-06T07:48:30;22.96;61.33
72106;SHT30;59975;47.646;18.318;2022-07-06T07:50:58;23.11;61.57
72106;SHT30;59975;47.646;18.318;2022-07-06T07:53:24;23.28;60.67
72106;SHT30;59975;47.646;18.318;2022-07-06T07:55:50;23.23;59.95
72106;SHT30;59975;47.646;18.318;2022-07-06T07:58:16;23.07;60.27
72106;SHT30;59975;47.646;18.318;2022-07-06T08:00:41;22.95;60.47
72106;SHT30;59975;47.646;18.318;2022-07-06T08:03:07;22.85;59.40
72106;SHT30;59975;47.646;18.318;2022-07-06T08:05:33;22.75;60.64
72106;SHT30;59975;47.646;18.318;2022-07-06T08:07:59;22.56;61.08
72106;SHT30;59975;47.646;18.318;2022-07-06T08:10:25;22.45;60.89
72106;SHT30;59975;47.646;18.318;2022-07-06T08:12:52;22.32;61.14
72106;SHT30;59975;47.646;18.318;2022-07-06T08:15:17;22.18;61.29
72106;SHT30;59975;47.646;18.318;2022-07-06T08:17:44;22.18;62.06
72106;SHT30;59975;47.646;18.318;2022-07-06T08:20:10;22.42;62.42
72106;SHT30;59975;47.646;18.318;2022-07-06T08:22:37;22.56;61.34
72106;SHT30;59975;47.646;18.318;2022-07-06T08:25:04;22.83;61.15
72106;SHT30;59975;47.646;18.318;2022-07-06T08:27:30;22.86;61.07
72106;SHT30;59975;47.646;18.318;2022-07-06T08:29:55;22.89;60.38
72106;SHT30;59975;47.646;18.318;2022-07-06T08:32:21;23.10;60.96
72106;SHT30;59975;47.646;18.318;2022-07-06T08:34:47;23.21;60.53
72106;SHT30;59975;47.646;18.318;2022-07-06T08:37:13;23.19;59.42
72106;SHT30;59975;47.646;18.318;2022-07-06T08:39:39;23.21;58.37
72106;SHT30;59975;47.646;18.318;2022-07-06T08:42:05;23.26;57.80
72106;SHT30;59975;47.646;18.318;2022-07-06T08:44:32;23.39;57.70
72106;SHT30;59975;47.646;18.318;2022-07-06T08:47:04;23.27;57.56
72106;SHT30;59975;47.646;18.318;2022-07-06T08:49:30;23.28;58.54
72106;SHT30;59975;47.646;18.318;2022-07-06T08:51:58;23.53;58.00
72106;SHT30;59975;47.646;18.318;2022-07-06T08:54:25;23.55;57.57
72106;SHT30;59975;47.646;18.318;2022-07-06T08:56:52;23.62;57.03
72106;SHT30;59975;47.646;18.318;2022-07-06T08:59:18;23.77;56.59
72106;SHT30;59975;47.646;18.318;2022-07-06T09:01:46;24.01;55.84
72106;SHT30;59975;47.646;18.318;2022-07-06T09:04:15;23.98;55.71
72106;SHT30;59975;47.646;18.318;2022-07-06T09:06:46;23.91;54.91
72106;SHT30;59975;47.646;18.318;2022-07-06T09:09:16;24.06;55.88
72106;SHT30;59975;47.646;18.318;2022-07-06T09:11:44;24.15;53.88
72106;SHT30;59975;47.646;18.318;2022-07-06T09:14:10;24.25;54.07
72106;SHT30;59975;47.646;18.318;2022-07-06T09:16:36;24.28;54.66
72106;SHT30;59975;47.646;18.318;2022-07-06T09:19:03;24.46;53.19
72106;SHT30;59975;47.646;18.318;2022-07-06T09:21:30;24.56;49.71
72106;SHT30;59975;47.646;18.318;2022-07-06T09:23:59;24.51;50.46
72106;SHT30;59975;47.646;18.318;2022-07-06T09:26:26;24.55;47.89
72106;SHT30;59975;47.646;18.318;2022-07-06T09:28:54;24.66;45.76
72106;SHT30;59975;47.646;18.318;2022-07-06T09:31:20;24.77;46.40
72106;SHT30;59975;47.646;18.318;2022-07-06T09:34:01;24.88;46.18
72106;SHT30;59975;47.646;18.318;2022-07-06T09:36:49;24.96;47.04
72106;SHT30;59975;47.646;18.318;2022-07-06T09:39:19;24.97;46.87
72106;SHT30;59975;47.646;18.318;2022-07-06T09:41:50;25.07;47.51
72106;SHT30;59975;47.646;18.318;2022-07-06T09:44:37;25.20;46.34
72106;SHT30;59975;47.646;18.318;2022-07-06T09:47:05;25.11;46.25
72106;SHT30;59975;47.646;18.318;2022-07-06T09:49:33;25.30;45.30
72106;SHT30;59975;47.646;18.318;2022-07-06T09:52:01;25.48;43.62
72106;SHT30;59975;47.646;18.318;2022-07-06T09:54:27;25.51;43.15
72106;SHT30;59975;47.646;18.318;2022-07-06T09:56:53;25.61;40.95
72106;SHT30;59975;47.646;18.318;2022-07-06T09:59:22;25.64;42.07
72106;SHT30;59975;47.646;18.318;2022-07-06T10:01:51;25.75;43.23
72106;SHT30;59975;47.646;18.318;2022-07-06T10:04:18;25.65;43.96
72106;SHT30;59975;47.646;18.318;2022-07-06T10:06:46;25.77;44.62
72106;SHT30;59975;47.646;18.318;2022-07-06T10:09:13;25.88;41.26
72106;SHT30;59975;47.646;18.318;2022-07-06T10:11:43;25.69;39.87
72106;SHT30;59975;47.646;18.318;2022-07-06T10:14:10;25.71;38.66
72106;SHT30;59975;47.646;18.318;2022-07-06T10:16:38;25.92;37.84
72106;SHT30;59975;47.646;18.318;2022-07-06T10:19:07;25.92;38.66
72106;SHT30;59975;47.646;18.318;2022-07-06T10:21:37;25.89;36.75
72106;SHT30;59975;47.646;18.318;2022-07-06T10:24:07;25.98;36.99
72106;SHT30;59975;47.646;18.318;2022-07-06T10:26:35;26.28;38.34
72106;SHT30;59975;47.646;18.318;2022-07-06T10:29:03;26.36;40.07
72106;SHT30;59975;47.646;18.318;2022-07-06T10:31:30;26.25;39.83
72106;SHT30;59975;47.646;18.318;2022-07-06T10:34:00;26.28;39.81
72106;SHT30;59975;47.646;18.318;2022-07-06T10:36:27;26.32;40.99
72106;SHT30;59975;47.646;18.318;2022-07-06T10:38:53;26.53;40.89
72106;SHT30;59975;47.646;18.318;2022-07-06T10:41:40;26.64;39.67
72106;SHT30;59975;47.646;18.318;2022-07-06T10:44:16;26.49;42.19
72106;SHT30;59975;47.646;18.318;2022-07-06T10:46:49;26.64;40.11
72106;SHT30;59975;47.646;18.318;2022-07-06T10:49:16;26.61;40.63
72106;SHT30;59975;47.646;18.318;2022-07-06T10:51:42;26.50;39.24
72106;SHT30;59975;47.646;18.318;2022-07-06T10:54:10;26.29;40.67
72106;SHT30;59975;47.646;18.318;2022-07-06T10:56:40;26.39;41.25
72106;SHT30;59975;47.646;18.318;2022-07-06T11:02:17;26.69;38.04
72106;SHT30;59975;47.646;18.318;2022-07-06T11:04:45;26.59;37.93
72106;SHT30;59975;47.646;18.318;2022-07-06T11:07:13;26.70;38.70
72106;SHT30;59975;47.646;18.318;2022-07-06T11:09:41;26.76;38.60
72106;SHT30;59975;47.646;18.318;2022-07-06T11:12:20;26.93;37.35
72106;SHT30;59975;47.646;18.318;2022-07-06T11:14:49;26.98;36.11
72106;SHT30;59975;47.646;18.318;2022-07-06T11:17:15;26.95;36.61
72106;SHT30;59975;47.646;18.318;2022-07-06T11:19:48;26.88;38.20
72106;SHT30;59975;47.646;18.318;2022-07-06T11:22:16;26.59;37.62
72106;SHT30;59975;47.646;18.318;2022-07-06T11:24:42;26.97;38.99
72106;SHT30;59975;47.646;18.318;2022-07-06T11:27:08;27.07;39.22
72106;SHT30;59975;47.646;18.318;2022-07-06T11:29:34;26.94;37.86
72106;SHT30;59975;47.646;18.318;2022-07-06T11:32:03;26.76;38.28
72106;SHT30;59975;47.646;18.318;2022-07-06T11:34:32;26.87;40.86
72106;SHT30;59975;47.646;18.318;2022-07-06T11:37:01;26.87;39.42
72106;SHT30;59975;47.646;18.318;2022-07-06T11:39:31;26.90;37.84
72106;SHT30;59975;47.646;18.318;2022-07-06T11:41:57;26.90;37.03
72106;SHT30;59975;47.646;18.318;2022-07-06T11:44:23;26.94;37.35
72106;SHT30;59975;47.646;18.318;2022-07-06T11:46:50;27.15;38.37
72106;SHT30;59975;47.646;18.318;2022-07-06T11:49:16;27.37;34.82
72106;SHT30;59975;47.646;18.318;2022-07-06T11:51:45;27.58;36.11
72106;SHT30;59975;47.646;18.318;2022-07-06T11:54:12;27.56;35.89
72106;SHT30;59975;47.646;18.318;2022-07-06T11:56:46;27.55;36.30
72106;SHT30;59975;47.646;18.318;2022-07-06T11:59:12;27.20;34.86
72106;SHT30;59975;47.646;18.318;2022-07-06T12:01:38;26.74;34.57
72106;SHT30;59975;47.646;18.318;2022-07-06T12:04:06;26.84;34.62
72106;SHT30;59975;47.646;18.318;2022-07-06T12:06:34;26.93;33.71
72106;SHT30;59975;47.646;18.318;2022-07-06T12:09:00;27.25;34.15
72106;SHT30;59975;47.646;18.318;2022-07-06T12:11:32;27.41;34.21
72106;SHT30;59975;47.646;18.318;2022-07-06T12:14:00;27.25;34.48
72106;SHT30;59975;47.646;18.318;2022-07-06T12:16:36;27.17;35.16
72106;SHT30;59975;47.646;18.318;2022-07-06T12:19:03;27.44;34.48
72106;SHT30;59975;47.646;18.318;2022-07-06T12:21:31;27.33;34.39
72106;SHT30;59975;47.646;18.318;2022-07-06T12:23:58;27.31;35.01
72106;SHT30;59975;47.646;18.318;2022-07-06T12:26:27;27.35;35.68
72106;SHT30;59975;47.646;18.318;2022-07-06T12:29:14;27.55;34.24
72106;SHT30;59975;47.646;18.318;2022-07-06T12:35:06;27.96;35.27
72106;SHT30;59975;47.646;18.318;2022-07-06T12:37:32;28.16;35.53
72106;SHT30;59975;47.646;18.318;2022-07-06T12:39:58;28.13;35.23
72106;SHT30;59975;47.646;18.318;2022-07-06T12:42:23;27.69;38.07
72106;SHT30;59975;47.646;18.318;2022-07-06T12:44:51;27.25;39.74
72106;SHT30;59975;47.646;18.318;2022-07-06T12:47:22;26.86;41.76
72106;SHT30;59975;47.646;18.318;2022-07-06T12:50:03;26.73;41.16
72106;SHT30;59975;47.646;18.318;2022-07-06T12:52:30;26.84;40.82
72106;SHT30;59975;47.646;18.318;2022-07-06T12:54:59;26.87;41.51
72106;SHT30;59975;47.646;18.318;2022-07-06T12:57:25;26.94;41.12
72106;SHT30;59975;47.646;18.318;2022-07-06T13:02:34;26.88;40.05
72106;SHT30;59975;47.646;18.318;2022-07-06T13:05:06;26.93;39.27
72106;SHT30;59975;47.646;18.318;2022-07-06T13:07:33;26.88;39.30
72106;SHT30;59975;47.646;18.318;2022-07-06T13:10:06;26.86;39.50
72106;SHT30;59975;47.646;18.318;2022-07-06T13:12:34;26.98;39.87
72106;SHT30;59975;47.646;18.318;2022-07-06T13:15:01;26.66;40.22
72106;SHT30;59975;47.646;18.318;2022-07-06T13:17:27;26.61;39.92
72106;SHT30;59975;47.646;18.318;2022-07-06T13:19:53;26.84;40.00
72106;SHT30;59975;47.646;18.318;2022-07-06T13:22:18;27.04;40.11
72106;SHT30;59975;47.646;18.318;2022-07-06T13:24:44;26.97;39.51
72106;SHT30;59975;47.646;18.318;2022-07-06T13:27:10;26.83;40.19
72106;SHT30;59975;47.646;18.318;2022-07-06T13:29:38;26.87;40.26
72106;SHT30;59975;47.646;18.318;2022-07-06T13:32:04;26.73;39.90
72106;SHT30;59975;47.646;18.318;2022-07-06T13:34:30;26.74;40.37
72106;SHT30;59975;47.646;18.318;2022-07-06T13:36:55;26.79;39.17
72106;SHT30;59975;47.646;18.318;2022-07-06T13:39:22;26.77;36.91
72106;SHT30;59975;47.646;18.318;2022-07-06T13:41:49;26.79;37.58
72106;SHT30;59975;47.646;18.318;2022-07-06T13:44:14;26.83;37.48
72106;SHT30;59975;47.646;18.318;2022-07-06T13:46:40;26.83;38.18
72106;SHT30;59975;47.646;18.318;2022-07-06T13:49:06;26.66;38.07
72106;SHT30;59975;47.646;18.318;2022-07-06T13:51:32;26.56;38.13
72106;SHT30;59975;47.646;18.318;2022-07-06T13:53:59;26.44;38.07
72106;SHT30;59975;47.646;18.318;2022-07-06T13:56:25;26.50;38.55
72106;SHT30;59975;47.646;18.318;2022-07-06T13:58:51;26.66;38.31
72106;SHT30;59975;47.646;18.318;2022-07-06T14:01:17;26.54;39.19
72106;SHT30;59975;47.646;18.318;2022-07-06T14:03:43;26.36;37.60
72106;SHT30;59975;47.646;18.318;2022-07-06T14:06:09;26.32;38.10
72106;SHT30;59975;47.646;18.318;2022-07-06T14:08:35;26.19;38.56
72106;SHT30;59975;47.646;18.318;2022-07-06T14:11:03;26.37;38.93
72106;SHT30;59975;47.646;18.318;2022-07-06T14:13:28;26.42;38.35
72106;SHT30;59975;47.646;18.318;2022-07-06T14:15:54;26.42;39.58
72106;SHT30;59975;47.646;18.318;2022-07-06T14:21:41;26.60;37.98
72106;SHT30;59975;47.646;18.318;2022-07-06T14:24:07;26.63;38.27
72106;SHT30;59975;47.646;18.318;2022-07-06T14:26:35;26.56;38.49
72106;SHT30;59975;47.646;18.318;2022-07-06T14:29:00;26.50;38.64
72106;SHT30;59975;47.646;18.318;2022-07-06T14:31:26;26.56;39.45
72106;SHT30;59975;47.646;18.318;2022-07-06T14:33:51;26.64;39.52
72106;SHT30;59975;47.646;18.318;2022-07-06T14:36:17;26.39;39.41
72106;SHT30;59975;47.646;18.318;2022-07-06T14:38:45;26.09;39.89
72106;SHT30;59975;47.646;18.318;2022-07-06T14:41:11;25.81;39.10
72106;SHT30;59975;47.646;18.318;2022-07-06T14:43:38;25.71;39.86
72106;SHT30;59975;47.646;18.318;2022-07-06T14:46:03;25.77;39.40
72106;SHT30;59975;47.646;18.318;2022-07-06T14:48:29;25.79;39.87
72106;SHT30;59975;47.646;18.318;2022-07-06T14:50:55;25.82;40.10
72106;SHT30;59975;47.646;18.318;2022-07-06T14:53:23;25.71;39.73
72106;SHT30;59975;47.646;18.318;2022-07-06T14:55:49;25.95;39.95
72106;SHT30;59975;47.646;18.318;2022-07-06T14:58:15;26.03;38.94
72106;SHT30;59975;47.646;18.318;2022-07-06T15:00:45;26.15;37.73
72106;SHT30;59975;47.646;18.318;2022-07-06T15:03:12;26.19;37.59
72106;SHT30;59975;47.646;18.318;2022-07-06T15:05:37;26.16;36.81
72106;SHT30;59975;47.646;18.318;2022-07-06T15:08:05;26.18;37.02
72106;SHT30;59975;47.646;18.318;2022-07-06T15:10:30;26.26;36.05
72106;SHT30;59975;47.646;18.318;2022-07-06T15:12:57;26.37;37.74
72106;SHT30;59975;47.646;18.318;2022-07-06T15:15:24;26.33;36.14
72106;SHT30;59975;47.646;18.318;2022-07-06T15:17:50;26.43;36.26
72106;SHT30;59975;47.646;18.318;2022-07-06T15:20:16;26.49;35.82
72106;SHT30;59975;47.646;18.318;2022-07-06T15:22:43;26.83;35.06
72106;SHT30;59975;47.646;18.318;2022-07-06T15:25:09;27.41;34.58
72106;SHT30;59975;47.646;18.318;2022-07-06T15:27:37;28.08;33.81
72106;SHT30;59975;47.646;18.318;2022-07-06T15:30:06;28.60;33.09
72106;SHT30;59975;47.646;18.318;2022-07-06T15:35:55;28.71;32.85
72106;SHT30;59975;47.646;18.318;2022-07-06T15:38:23;29.00;32.76
72106;SHT30;59975;47.646;18.318;2022-07-06T15:40:52;28.88;32.85
72106;SHT30;59975;47.646;18.318;2022-07-06T15:43:24;28.94;32.51
72106;SHT30;59975;47.646;18.318;2022-07-06T15:49:12;29.28;32.88
72106;SHT30;59975;47.646;18.318;2022-07-06T15:51:38;28.65;34.21
72106;SHT30;59975;47.646;18.318;2022-07-06T15:54:04;29.21;33.53
72106;SHT30;59975;47.646;18.318;2022-07-06T15:56:30;29.34;32.80
72106;SHT30;59975;47.646;18.318;2022-07-06T15:58:56;28.88;34.22
72106;SHT30;59975;47.646;18.318;2022-07-06T16:01:22;28.49;34.68
72106;SHT30;59975;47.646;18.318;2022-07-06T16:03:48;28.06;34.99
72106;SHT30;59975;47.646;18.318;2022-07-06T16:06:15;28.30;34.68
72106;SHT30;59975;47.646;18.318;2022-07-06T16:08:41;28.78;33.82
72106;SHT30;59975;47.646;18.318;2022-07-06T16:11:07;28.81;33.59
72106;SHT30;59975;47.646;18.318;2022-07-06T16:13:33;28.63;32.33
72106;SHT30;59975;47.646;18.318;2022-07-06T16:15:59;28.49;33.37
72106;SHT30;59975;47.646;18.318;2022-07-06T16:18:25;28.29;33.87
72106;SHT30;59975;47.646;18.318;2022-07-06T16:20:51;27.76;34.75
72106;SHT30;59975;47.646;18.318;2022-07-06T16:23:18;27.85;34.68
72106;SHT30;59975;47.646;18.318;2022-07-06T16:25:44;27.92;34.68
72106;SHT30;59975;47.646;18.318;2022-07-06T16:28:10;27.33;35.36
72106;SHT30;59975;47.646;18.318;2022-07-06T16:30:36;26.87;36.06
72106;SHT30;59975;47.646;18.318;2022-07-06T16:33:01;27.38;35.12
72106;SHT30;59975;47.646;18.318;2022-07-06T16:35:27;28.09;34.77
72106;SHT30;59975;47.646;18.318;2022-07-06T16:37:55;28.47;34.06
72106;SHT30;59975;47.646;18.318;2022-07-06T16:40:21;28.41;33.91
72106;SHT30;59975;47.646;18.318;2022-07-06T16:42:48;28.65;33.49
72106;SHT30;59975;47.646;18.318;2022-07-06T16:45:14;28.75;33.13
72106;SHT30;59975;47.646;18.318;2022-07-06T16:47:40;28.68;32.44
72106;SHT30;59975;47.646;18.318;2022-07-06T16:50:06;28.77;32.40
72106;SHT30;59975;47.646;18.318;2022-07-06T16:52:33;28.54;31.65
72106;SHT30;59975;47.646;18.318;2022-07-06T16:54:59;28.53;32.44
72106;SHT30;59975;47.646;18.318;2022-07-06T16:57:25;28.56;31.85
72106;SHT30;59975;47.646;18.318;2022-07-06T16:59:51;28.49;31.81
72106;SHT30;59975;47.646;18.318;2022-07-06T17:02:17;28.19;31.88
72106;SHT30;59975;47.646;18.318;2022-07-06T17:04:43;28.00;31.99
72106;SHT30;59975;47.646;18.318;2022-07-06T17:07:10;28.08;31.65